sensor_id;sensor_type;location;lat;lon;timestamp;P1;durP1;ratioP1;P2;durP2;ratioP2
2542;SDS011;1116;51.502;7.414;2023-02-25T00:00:30;15.40;;;2.50;;
2542;SDS011;1116;51.502;7.414;2023-02-25T00:03:01;14.30;;;3.10;;
2542;SDS011;1116;51.502;7.414;2023-02-25T00:05:32;15.77;;;3.40;;
2542;SDS011;1116;51.502;7.414;2023-02-25T00:08:03;16.07;;;2.77;;
2542;SDS011;1116;51.502;7.414;2023-02-25T00:10:34;10.80;;;2.73;;
2542;SDS011;1116;51.502;7.414;2023-02-25T00:13:08;9.97;;;2.47;;
2542;SDS011;1116;51.502;7.414;2023-02-25T00:15:50;13.33;;;2.77;;
2542;SDS011;1116;51.502;7.414;2023-02-25T00:18:21;9.93;;;2.50;;
2542;SDS011;1116;51.502;7.414;2023-02-25T00:20:52;10.10;;;2.43;;
2542;SDS011;1116;51.502;7.414;2023-02-25T00:23:23;9.53;;;2.23;;
2542;SDS011;1116;51.502;7.414;2023-02-25T00:25:57;9.87;;;2.53;;
2542;SDS011;1116;51.502;7.414;2023-02-25T00:28:31;10.73;;;3.30;;
2542;SDS011;1116;51.502;7.414;2023-02-25T00:31:07;10.33;;;2.83;;
2542;SDS011;1116;51.502;7.414;2023-02-25T00:33:38;12.40;;;2.43;;
2542;SDS011;1116;51.502;7.414;2023-02-25T00:36:10;11.63;;;2.07;;
2542;SDS011;1116;51.502;7.414;2023-02-25T00:38:45;7.20;;;2.43;;
2542;SDS011;1116;51.502;7.414;2023-02-25T00:41:17;13.77;;;2.73;;
2542;SDS011;1116;51.502;7.414;2023-02-25T00:43:53;9.00;;;2.53;;
2542;SDS011;1116;51.502;7.414;2023-02-25T00:46:25;12.90;;;2.20;;
2542;SDS011;1116;51.502;7.414;2023-02-25T00:48:59;9.07;;;2.17;;
2542;SDS011;1116;51.502;7.414;2023-02-25T00:51:31;10.77;;;2.30;;
2542;SDS011;1116;51.502;7.414;2023-02-25T00:54:09;9.53;;;2.40;;
2542;SDS011;1116;51.502;7.414;2023-02-25T00:56:40;11.73;;;2.63;;
2542;SDS011;1116;51.502;7.414;2023-02-25T00:59:13;11.43;;;2.33;;
2542;SDS011;1116;51.502;7.414;2023-02-25T01:01:44;8.90;;;2.30;;
2542;SDS011;1116;51.502;7.414;2023-02-25T01:04:16;10.77;;;2.80;;
2542;SDS011;1116;51.502;7.414;2023-02-25T01:06:47;8.07;;;1.90;;
2542;SDS011;1116;51.502;7.414;2023-02-25T01:09:18;8.27;;;2.43;;
2542;SDS011;1116;51.502;7.414;2023-02-25T01:11:51;9.50;;;2.97;;
2542;SDS011;1116;51.502;7.414;2023-02-25T01:14:25;13.87;;;3.50;;
2542;SDS011;1116;51.502;7.414;2023-02-25T01:16:56;17.77;;;3.10;;
2542;SDS011;1116;51.502;7.414;2023-02-25T01:19:29;10.87;;;2.53;;
2542;SDS011;1116;51.502;7.414;2023-02-25T01:22:00;14.00;;;2.50;;
2542;SDS011;1116;51.502;7.414;2023-02-25T01:24:31;10.77;;;2.50;;
2542;SDS011;1116;51.502;7.414;2023-02-25T01:27:03;9.63;;;2.53;;
2542;SDS011;1116;51.502;7.414;2023-02-25T01:29:37;13.83;;;2.53;;
2542;SDS011;1116;51.502;7.414;2023-02-25T01:32:12;14.93;;;4.27;;
2542;SDS011;1116;51.502;7.414;2023-02-25T01:34:49;18.23;;;2.73;;
2542;SDS011;1116;51.502;7.414;2023-02-25T01:37:20;7.30;;;2.47;;
2542;SDS011;1116;51.502;7.414;2023-02-25T01:39:51;8.13;;;2.03;;
2542;SDS011;1116;51.502;7.414;2023-02-25T01:42:22;10.77;;;2.70;;
2542;SDS011;1116;51.502;7.414;2023-02-25T01:48:01;9.47;;;3.90;;
2542;SDS011;1116;51.502;7.414;2023-02-25T01:50:37;9.13;;;2.37;;
2542;SDS011;1116;51.502;7.414;2023-02-25T01:53:17;8.00;;;2.30;;
2542;SDS011;1116;51.502;7.414;2023-02-25T01:55:51;10.60;;;2.73;;
2542;SDS011;1116;51.502;7.414;2023-02-25T01:58:23;9.20;;;2.60;;
2542;SDS011;1116;51.502;7.414;2023-02-25T02:01:01;9.63;;;2.70;;
2542;SDS011;1116;51.502;7.414;2023-02-25T02:03:34;15.30;;;2.90;;
2542;SDS011;1116;51.502;7.414;2023-02-25T02:06:10;10.63;;;2.60;;
2542;SDS011;1116;51.502;7.414;2023-02-25T02:08:44;6.60;;;2.60;;
2542;SDS011;1116;51.502;7.414;2023-02-25T02:11:16;10.40;;;2.20;;
2542;SDS011;1116;51.502;7.414;2023-02-25T02:13:48;14.03;;;3.20;;
2542;SDS011;1116;51.502;7.414;2023-02-25T02:16:36;8.93;;;2.80;;
2542;SDS011;1116;51.502;7.414;2023-02-25T02:19:20;10.87;;;2.57;;
2542;SDS011;1116;51.502;7.414;2023-02-25T02:22:06;10.10;;;2.50;;
2542;SDS011;1116;51.502;7.414;2023-02-25T02:24:55;11.00;;;2.70;;
2542;SDS011;1116;51.502;7.414;2023-02-25T02:27:41;9.63;;;2.20;;
2542;SDS011;1116;51.502;7.414;2023-02-25T02:30:33;11.33;;;2.40;;
2542;SDS011;1116;51.502;7.414;2023-02-25T02:33:16;13.23;;;2.70;;
2542;SDS011;1116;51.502;7.414;2023-02-25T02:35:55;14.20;;;2.80;;
2542;SDS011;1116;51.502;7.414;2023-02-25T02:38:30;17.13;;;2.60;;
2542;SDS011;1116;51.502;7.414;2023-02-25T02:41:07;6.57;;;2.00;;
2542;SDS011;1116;51.502;7.414;2023-02-25T02:43:46;9.17;;;2.40;;
2542;SDS011;1116;51.502;7.414;2023-02-25T02:46:27;9.00;;;2.13;;
2542;SDS011;1116;51.502;7.414;2023-02-25T02:49:07;11.23;;;2.27;;
2542;SDS011;1116;51.502;7.414;2023-02-25T02:51:44;12.40;;;2.70;;
2542;SDS011;1116;51.502;7.414;2023-02-25T02:54:23;10.53;;;3.07;;
2542;SDS011;1116;51.502;7.414;2023-02-25T02:56:56;12.60;;;3.00;;
2542;SDS011;1116;51.502;7.414;2023-02-25T02:59:31;7.17;;;2.60;;
2542;SDS011;1116;51.502;7.414;2023-02-25T03:02:10;10.17;;;2.60;;
2542;SDS011;1116;51.502;7.414;2023-02-25T03:04:47;25.60;;;3.13;;
2542;SDS011;1116;51.502;7.414;2023-02-25T03:07:23;17.77;;;2.80;;
2542;SDS011;1116;51.502;7.414;2023-02-25T03:09:56;14.43;;;3.67;;
2542;SDS011;1116;51.502;7.414;2023-02-25T03:12:31;12.07;;;2.90;;
2542;SDS011;1116;51.502;7.414;2023-02-25T03:15:05;11.87;;;2.90;;
2542;SDS011;1116;51.502;7.414;2023-02-25T03:17:38;15.43;;;3.07;;
2542;SDS011;1116;51.502;7.414;2023-02-25T03:20:19;10.90;;;3.00;;
2542;SDS011;1116;51.502;7.414;2023-02-25T03:22:55;11.97;;;2.93;;
2542;SDS011;1116;51.502;7.414;2023-02-25T03:25:32;14.83;;;3.20;;
2542;SDS011;1116;51.502;7.414;2023-02-25T03:28:17;16.40;;;3.00;;
2542;SDS011;1116;51.502;7.414;2023-02-25T03:30:57;12.27;;;2.70;;
2542;SDS011;1116;51.502;7.414;2023-02-25T03:33:34;12.97;;;3.63;;
2542;SDS011;1116;51.502;7.414;2023-02-25T03:36:17;12.80;;;3.30;;
2542;SDS011;1116;51.502;7.414;2023-02-25T03:38:52;14.03;;;4.20;;
2542;SDS011;1116;51.502;7.414;2023-02-25T03:41:29;8.83;;;3.37;;
2542;SDS011;1116;51.502;7.414;2023-02-25T03:44:04;13.17;;;3.73;;
2542;SDS011;1116;51.502;7.414;2023-02-25T03:46:38;12.20;;;3.27;;
2542;SDS011;1116;51.502;7.414;2023-02-25T03:49:22;13.23;;;3.37;;
2542;SDS011;1116;51.502;7.414;2023-02-25T03:52:02;9.83;;;2.87;;
2542;SDS011;1116;51.502;7.414;2023-02-25T03:54:38;14.60;;;3.93;;
2542;SDS011;1116;51.502;7.414;2023-02-25T03:57:09;16.00;;;4.00;;
2542;SDS011;1116;51.502;7.414;2023-02-25T03:59:40;16.07;;;4.70;;
2542;SDS011;1116;51.502;7.414;2023-02-25T04:02:11;17.03;;;3.83;;
2542;SDS011;1116;51.502;7.414;2023-02-25T04:04:43;19.97;;;3.87;;
2542;SDS011;1116;51.502;7.414;2023-02-25T04:07:16;14.50;;;3.37;;
2542;SDS011;1116;51.502;7.414;2023-02-25T04:09:47;12.53;;;2.80;;
2542;SDS011;1116;51.502;7.414;2023-02-25T04:12:23;15.53;;;3.10;;
2542;SDS011;1116;51.502;7.414;2023-02-25T04:14:54;12.03;;;3.13;;
2542;SDS011;1116;51.502;7.414;2023-02-25T04:17:25;14.07;;;3.87;;
2542;SDS011;1116;51.502;7.414;2023-02-25T04:19:56;12.43;;;2.27;;
2542;SDS011;1116;51.502;7.414;2023-02-25T04:22:29;19.23;;;3.60;;
2542;SDS011;1116;51.502;7.414;2023-02-25T04:25:00;14.23;;;2.43;;
2542;SDS011;1116;51.502;7.414;2023-02-25T04:27:31;13.20;;;3.43;;
2542;SDS011;1116;51.502;7.414;2023-02-25T04:30:03;18.60;;;3.20;;
2542;SDS011;1116;51.502;7.414;2023-02-25T04:32:37;14.53;;;3.50;;
2542;SDS011;1116;51.502;7.414;2023-02-25T04:35:09;7.23;;;2.70;;
2542;SDS011;1116;51.502;7.414;2023-02-25T04:40:21;12.37;;;2.73;;
2542;SDS011;1116;51.502;7.414;2023-02-25T04:42:55;12.70;;;2.70;;
2542;SDS011;1116;51.502;7.414;2023-02-25T04:45:26;16.10;;;3.43;;
2542;SDS011;1116;51.502;7.414;2023-02-25T04:47:57;12.07;;;2.93;;
2542;SDS011;1116;51.502;7.414;2023-02-25T04:50:30;10.63;;;2.73;;
2542;SDS011;1116;51.502;7.414;2023-02-25T04:53:03;17.80;;;2.90;;
2542;SDS011;1116;51.502;7.414;2023-02-25T04:55:34;13.63;;;2.90;;
2542;SDS011;1116;51.502;7.414;2023-02-25T04:58:05;12.70;;;3.00;;
2542;SDS011;1116;51.502;7.414;2023-02-25T05:00:37;12.17;;;2.87;;
2542;SDS011;1116;51.502;7.414;2023-02-25T05:03:14;12.63;;;2.97;;
2542;SDS011;1116;51.502;7.414;2023-02-25T05:05:45;14.00;;;3.60;;
2542;SDS011;1116;51.502;7.414;2023-02-25T05:08:18;13.20;;;2.47;;
2542;SDS011;1116;51.502;7.414;2023-02-25T05:10:49;12.77;;;3.03;;
2542;SDS011;1116;51.502;7.414;2023-02-25T05:13:20;11.77;;;2.80;;
2542;SDS011;1116;51.502;7.414;2023-02-25T05:15:51;12.13;;;2.50;;
2542;SDS011;1116;51.502;7.414;2023-02-25T05:18:33;10.83;;;3.17;;
2542;SDS011;1116;51.502;7.414;2023-02-25T05:21:07;11.33;;;2.63;;
2542;SDS011;1116;51.502;7.414;2023-02-25T05:23:42;20.27;;;2.90;;
2542;SDS011;1116;51.502;7.414;2023-02-25T05:26:15;13.90;;;2.93;;
2542;SDS011;1116;51.502;7.414;2023-02-25T05:28:50;15.10;;;2.77;;
2542;SDS011;1116;51.502;7.414;2023-02-25T05:31:21;12.77;;;2.77;;
2542;SDS011;1116;51.502;7.414;2023-02-25T05:33:53;18.43;;;2.90;;
2542;SDS011;1116;51.502;7.414;2023-02-25T05:36:29;17.47;;;3.37;;
2542;SDS011;1116;51.502;7.414;2023-02-25T05:39:02;12.47;;;3.10;;
2542;SDS011;1116;51.502;7.414;2023-02-25T05:41:33;14.00;;;3.10;;
2542;SDS011;1116;51.502;7.414;2023-02-25T05:44:05;9.07;;;2.90;;
2542;SDS011;1116;51.502;7.414;2023-02-25T05:46:36;12.77;;;2.30;;
2542;SDS011;1116;51.502;7.414;2023-02-25T05:49:07;10.60;;;3.20;;
2542;SDS011;1116;51.502;7.414;2023-02-25T05:51:38;15.80;;;3.13;;
2542;SDS011;1116;51.502;7.414;2023-02-25T05:54:12;15.63;;;3.17;;
2542;SDS011;1116;51.502;7.414;2023-02-25T05:56:49;12.07;;;2.23;;
2542;SDS011;1116;51.502;7.414;2023-02-25T05:59:22;13.80;;;3.30;;
2542;SDS011;1116;51.502;7.414;2023-02-25T06:01:53;12.93;;;3.00;;
2542;SDS011;1116;51.502;7.414;2023-02-25T06:04:24;10.70;;;2.20;;
2542;SDS011;1116;51.502;7.414;2023-02-25T06:06:54;13.93;;;3.10;;
2542;SDS011;1116;51.502;7.414;2023-02-25T06:09:28;8.43;;;2.77;;
2542;SDS011;1116;51.502;7.414;2023-02-25T06:11:59;14.50;;;2.80;;
2542;SDS011;1116;51.502;7.414;2023-02-25T06:14:30;8.90;;;2.53;;
2542;SDS011;1116;51.502;7.414;2023-02-25T06:17:01;13.70;;;2.77;;
2542;SDS011;1116;51.502;7.414;2023-02-25T06:19:32;12.13;;;2.57;;
2542;SDS011;1116;51.502;7.414;2023-02-25T06:22:06;12.33;;;3.00;;
2542;SDS011;1116;51.502;7.414;2023-02-25T06:24:39;14.00;;;3.30;;
2542;SDS011;1116;51.502;7.414;2023-02-25T06:27:11;9.40;;;3.00;;
2542;SDS011;1116;51.502;7.414;2023-02-25T06:29:45;12.40;;;3.40;;
2542;SDS011;1116;51.502;7.414;2023-02-25T06:32:17;10.40;;;3.40;;
2542;SDS011;1116;51.502;7.414;2023-02-25T06:34:48;13.63;;;2.57;;
2542;SDS011;1116;51.502;7.414;2023-02-25T06:37:23;13.53;;;2.53;;
2542;SDS011;1116;51.502;7.414;2023-02-25T06:39:56;13.80;;;4.00;;
2542;SDS011;1116;51.502;7.414;2023-02-25T06:42:27;12.63;;;2.87;;
2542;SDS011;1116;51.502;7.414;2023-02-25T06:44:58;10.70;;;3.10;;
2542;SDS011;1116;51.502;7.414;2023-02-25T06:47:29;11.07;;;2.80;;
2542;SDS011;1116;51.502;7.414;2023-02-25T06:49:59;8.60;;;2.97;;
2542;SDS011;1116;51.502;7.414;2023-02-25T06:52:31;11.73;;;2.40;;
2542;SDS011;1116;51.502;7.414;2023-02-25T06:55:11;10.07;;;2.60;;
2542;SDS011;1116;51.502;7.414;2023-02-25T06:57:42;11.50;;;2.63;;
2542;SDS011;1116;51.502;7.414;2023-02-25T07:00:13;14.60;;;2.63;;
2542;SDS011;1116;51.502;7.414;2023-02-25T07:02:45;11.67;;;2.70;;
2542;SDS011;1116;51.502;7.414;2023-02-25T07:05:15;7.40;;;2.23;;
2542;SDS011;1116;51.502;7.414;2023-02-25T07:07:46;11.17;;;3.23;;
2542;SDS011;1116;51.502;7.414;2023-02-25T07:10:20;10.77;;;2.40;;
2542;SDS011;1116;51.502;7.414;2023-02-25T07:12:51;17.73;;;3.87;;
2542;SDS011;1116;51.502;7.414;2023-02-25T07:15:21;10.70;;;3.00;;
2542;SDS011;1116;51.502;7.414;2023-02-25T07:17:52;10.87;;;2.70;;
2542;SDS011;1116;51.502;7.414;2023-02-25T07:20:25;11.10;;;3.23;;
2542;SDS011;1116;51.502;7.414;2023-02-25T07:23:01;14.90;;;3.70;;
2542;SDS011;1116;51.502;7.414;2023-02-25T07:25:35;15.50;;;2.97;;
2542;SDS011;1116;51.502;7.414;2023-02-25T07:28:09;17.20;;;3.17;;
2542;SDS011;1116;51.502;7.414;2023-02-25T07:30:40;13.40;;;3.63;;
2542;SDS011;1116;51.502;7.414;2023-02-25T07:33:11;14.77;;;3.57;;
2542;SDS011;1116;51.502;7.414;2023-02-25T07:35:42;15.30;;;3.23;;
2542;SDS011;1116;51.502;7.414;2023-02-25T07:38:12;15.90;;;3.70;;
2542;SDS011;1116;51.502;7.414;2023-02-25T07:40:46;16.17;;;3.53;;
2542;SDS011;1116;51.502;7.414;2023-02-25T07:43:18;16.13;;;3.40;;
2542;SDS011;1116;51.502;7.414;2023-02-25T07:45:49;8.77;;;2.50;;
2542;SDS011;1116;51.502;7.414;2023-02-25T07:48:21;11.43;;;2.93;;
2542;SDS011;1116;51.502;7.414;2023-02-25T07:50:53;11.17;;;2.77;;
2542;SDS011;1116;51.502;7.414;2023-02-25T07:53:24;20.90;;;3.20;;
2542;SDS011;1116;51.502;7.414;2023-02-25T07:55:57;12.90;;;3.03;;
2542;SDS011;1116;51.502;7.414;2023-02-25T07:58:28;9.73;;;2.70;;
2542;SDS011;1116;51.502;7.414;2023-02-25T08:00:59;17.90;;;3.30;;
2542;SDS011;1116;51.502;7.414;2023-02-25T08:03:31;13.33;;;3.00;;
2542;SDS011;1116;51.502;7.414;2023-02-25T08:06:05;15.17;;;2.57;;
2542;SDS011;1116;51.502;7.414;2023-02-25T08:08:38;14.73;;;3.47;;
2542;SDS011;1116;51.502;7.414;2023-02-25T08:11:13;16.27;;;3.50;;
2542;SDS011;1116;51.502;7.414;2023-02-25T08:13:44;15.00;;;3.23;;
2542;SDS011;1116;51.502;7.414;2023-02-25T08:16:16;16.90;;;3.37;;
2542;SDS011;1116;51.502;7.414;2023-02-25T08:18:48;17.77;;;3.00;;
2542;SDS011;1116;51.502;7.414;2023-02-25T08:21:20;10.50;;;3.07;;
2542;SDS011;1116;51.502;7.414;2023-02-25T08:23:53;18.60;;;3.83;;
2542;SDS011;1116;51.502;7.414;2023-02-25T08:26:26;11.33;;;2.97;;
2542;SDS011;1116;51.502;7.414;2023-02-25T08:28:57;12.80;;;2.80;;
2542;SDS011;1116;51.502;7.414;2023-02-25T08:31:28;10.83;;;3.47;;
2542;SDS011;1116;51.502;7.414;2023-02-25T08:33:59;12.47;;;3.13;;
2542;SDS011;1116;51.502;7.414;2023-02-25T08:36:33;19.30;;;3.13;;
2542;SDS011;1116;51.502;7.414;2023-02-25T08:39:04;12.20;;;2.70;;
2542;SDS011;1116;51.502;7.414;2023-02-25T08:41:38;11.87;;;3.33;;
2542;SDS011;1116;51.502;7.414;2023-02-25T08:44:09;15.93;;;3.63;;
2542;SDS011;1116;51.502;7.414;2023-02-25T08:46:40;13.70;;;4.20;;
2542;SDS011;1116;51.502;7.414;2023-02-25T08:49:11;18.67;;;4.27;;
2542;SDS011;1116;51.502;7.414;2023-02-25T08:51:42;12.67;;;4.00;;
2542;SDS011;1116;51.502;7.414;2023-02-25T08:54:13;11.00;;;3.17;;
2542;SDS011;1116;51.502;7.414;2023-02-25T08:56:49;11.33;;;3.07;;
2542;SDS011;1116;51.502;7.414;2023-02-25T08:59:22;14.93;;;3.40;;
2542;SDS011;1116;51.502;7.414;2023-02-25T09:01:52;12.17;;;3.13;;
2542;SDS011;1116;51.502;7.414;2023-02-25T09:04:25;18.30;;;4.67;;
2542;SDS011;1116;51.502;7.414;2023-02-25T09:06:56;14.37;;;3.87;;
2542;SDS011;1116;51.502;7.414;2023-02-25T09:09:27;11.40;;;3.00;;
2542;SDS011;1116;51.502;7.414;2023-02-25T09:12:00;14.23;;;3.00;;
2542;SDS011;1116;51.502;7.414;2023-02-25T09:14:32;6.77;;;2.70;;
2542;SDS011;1116;51.502;7.414;2023-02-25T09:17:04;12.20;;;2.77;;
2542;SDS011;1116;51.502;7.414;2023-02-25T09:19:35;12.40;;;2.83;;
2542;SDS011;1116;51.502;7.414;2023-02-25T09:22:08;4.73;;;1.93;;
2542;SDS011;1116;51.502;7.414;2023-02-25T09:24:44;5.90;;;1.87;;
2542;SDS011;1116;51.502;7.414;2023-02-25T09:27:18;5.00;;;1.77;;
2542;SDS011;1116;51.502;7.414;2023-02-25T09:29:49;8.03;;;2.30;;
2542;SDS011;1116;51.502;7.414;2023-02-25T09:32:20;3.90;;;1.73;;
2542;SDS011;1116;51.502;7.414;2023-02-25T09:34:51;4.70;;;1.37;;
2542;SDS011;1116;51.502;7.414;2023-02-25T09:37:22;3.47;;;1.10;;
2542;SDS011;1116;51.502;7.414;2023-02-25T09:39:53;2.80;;;0.90;;
2542;SDS011;1116;51.502;7.414;2023-02-25T09:42:29;2.60;;;1.50;;
2542;SDS011;1116;51.502;7.414;2023-02-25T09:45:13;3.87;;;1.60;;
2542;SDS011;1116;51.502;7.414;2023-02-25T09:47:49;5.90;;;2.27;;
2542;SDS011;1116;51.502;7.414;2023-02-25T09:50:25;4.47;;;1.63;;
2542;SDS011;1116;51.502;7.414;2023-02-25T09:58:34;5.13;;;1.80;;
2542;SDS011;1116;51.502;7.414;2023-02-25T10:01:11;4.70;;;2.00;;
2542;SDS011;1116;51.502;7.414;2023-02-25T10:04:00;7.00;;;2.23;;
2542;SDS011;1116;51.502;7.414;2023-02-25T10:06:47;5.47;;;1.80;;
2542;SDS011;1116;51.502;7.414;2023-02-25T10:09:20;8.33;;;1.83;;
2542;SDS011;1116;51.502;7.414;2023-02-25T10:11:59;12.00;;;2.50;;
2542;SDS011;1116;51.502;7.414;2023-02-25T10:14:52;6.77;;;2.20;;
2542;SDS011;1116;51.502;7.414;2023-02-25T10:17:35;5.70;;;1.43;;
2542;SDS011;1116;51.502;7.414;2023-02-25T10:20:30;6.83;;;1.50;;
2542;SDS011;1116;51.502;7.414;2023-02-25T10:23:20;5.30;;;1.97;;
2542;SDS011;1116;51.502;7.414;2023-02-25T10:26:01;4.27;;;1.30;;
2542;SDS011;1116;51.502;7.414;2023-02-25T10:28:40;2.40;;;1.27;;
2542;SDS011;1116;51.502;7.414;2023-02-25T10:31:17;2.43;;;1.07;;
2542;SDS011;1116;51.502;7.414;2023-02-25T10:33:52;4.47;;;1.20;;
2542;SDS011;1116;51.502;7.414;2023-02-25T10:36:26;2.57;;;1.03;;
2542;SDS011;1116;51.502;7.414;2023-02-25T10:39:00;4.43;;;1.80;;
2542;SDS011;1116;51.502;7.414;2023-02-25T10:41:31;4.23;;;1.30;;
2542;SDS011;1116;51.502;7.414;2023-02-25T10:46:48;4.07;;;2.03;;
2542;SDS011;1116;51.502;7.414;2023-02-25T10:49:26;5.30;;;1.20;;
2542;SDS011;1116;51.502;7.414;2023-02-25T10:52:05;9.40;;;2.80;;
2542;SDS011;1116;51.502;7.414;2023-02-25T10:54:46;6.83;;;1.40;;
2542;SDS011;1116;51.502;7.414;2023-02-25T10:57:22;5.20;;;1.50;;
2542;SDS011;1116;51.502;7.414;2023-02-25T10:59:58;7.80;;;1.70;;
2542;SDS011;1116;51.502;7.414;2023-02-25T11:02:34;5.60;;;2.03;;
2542;SDS011;1116;51.502;7.414;2023-02-25T11:07:59;10.10;;;2.00;;
2542;SDS011;1116;51.502;7.414;2023-02-25T11:10:33;6.03;;;2.33;;
2542;SDS011;1116;51.502;7.414;2023-02-25T11:13:04;5.10;;;2.40;;
2542;SDS011;1116;51.502;7.414;2023-02-25T11:15:37;7.10;;;1.87;;
2542;SDS011;1116;51.502;7.414;2023-02-25T11:18:20;5.70;;;2.23;;
2542;SDS011;1116;51.502;7.414;2023-02-25T11:20:53;7.20;;;1.90;;
2542;SDS011;1116;51.502;7.414;2023-02-25T11:23:30;3.17;;;1.50;;
2542;SDS011;1116;51.502;7.414;2023-02-25T11:26:03;4.80;;;1.70;;
2542;SDS011;1116;51.502;7.414;2023-02-25T11:28:42;5.20;;;2.17;;
2542;SDS011;1116;51.502;7.414;2023-02-25T11:31:15;7.87;;;1.90;;
2542;SDS011;1116;51.502;7.414;2023-02-25T11:33:55;5.20;;;1.63;;
2542;SDS011;1116;51.502;7.414;2023-02-25T11:36:32;6.40;;;2.43;;
2542;SDS011;1116;51.502;7.414;2023-02-25T11:39:06;7.37;;;1.90;;
2542;SDS011;1116;51.502;7.414;2023-02-25T11:41:47;3.90;;;1.77;;
2542;SDS011;1116;51.502;7.414;2023-02-25T11:44:21;5.27;;;2.13;;
2542;SDS011;1116;51.502;7.414;2023-02-25T11:46:56;6.13;;;1.90;;
2542;SDS011;1116;51.502;7.414;2023-02-25T11:52:36;3.63;;;1.60;;
2542;SDS011;1116;51.502;7.414;2023-02-25T11:55:16;5.83;;;1.70;;
2542;SDS011;1116;51.502;7.414;2023-02-25T11:57:58;7.50;;;1.97;;
2542;SDS011;1116;51.502;7.414;2023-02-25T12:00:37;8.03;;;2.33;;
2542;SDS011;1116;51.502;7.414;2023-02-25T12:03:20;8.03;;;2.37;;
2542;SDS011;1116;51.502;7.414;2023-02-25T12:06:23;2.67;;;1.53;;
2542;SDS011;1116;51.502;7.414;2023-02-25T12:12:13;3.33;;;1.57;;
2542;SDS011;1116;51.502;7.414;2023-02-25T12:18:00;4.63;;;1.17;;
2542;SDS011;1116;51.502;7.414;2023-02-25T12:24:11;7.67;;;1.70;;
2542;SDS011;1116;51.502;7.414;2023-02-25T12:27:08;6.50;;;1.97;;
2542;SDS011;1116;51.502;7.414;2023-02-25T12:29:59;6.00;;;1.63;;
2542;SDS011;1116;51.502;7.414;2023-02-25T12:32:44;6.53;;;1.43;;
2542;SDS011;1116;51.502;7.414;2023-02-25T12:35:39;6.97;;;1.67;;
2542;SDS011;1116;51.502;7.414;2023-02-25T12:38:29;4.27;;;1.50;;
2542;SDS011;1116;51.502;7.414;2023-02-25T12:41:23;4.00;;;1.43;;
2542;SDS011;1116;51.502;7.414;2023-02-25T12:44:18;4.50;;;2.20;;
2542;SDS011;1116;51.502;7.414;2023-02-25T12:47:22;2.17;;;1.37;;
2542;SDS011;1116;51.502;7.414;2023-02-25T12:50:07;4.27;;;1.43;;
2542;SDS011;1116;51.502;7.414;2023-02-25T12:52:55;5.83;;;2.10;;
2542;SDS011;1116;51.502;7.414;2023-02-25T12:55:51;4.47;;;1.30;;
2542;SDS011;1116;51.502;7.414;2023-02-25T12:58:38;3.50;;;1.50;;
2542;SDS011;1116;51.502;7.414;2023-02-25T13:01:32;8.53;;;1.73;;
2542;SDS011;1116;51.502;7.414;2023-02-25T13:04:33;6.10;;;1.37;;
2542;SDS011;1116;51.502;7.414;2023-02-25T13:13:20;3.83;;;1.53;;
2542;SDS011;1116;51.502;7.414;2023-02-25T13:16:15;2.33;;;1.50;;
2542;SDS011;1116;51.502;7.414;2023-02-25T13:19:17;5.50;;;1.67;;
2542;SDS011;1116;51.502;7.414;2023-02-25T13:22:06;10.07;;;1.60;;
2542;SDS011;1116;51.502;7.414;2023-02-25T13:24:47;4.30;;;1.33;;
2542;SDS011;1116;51.502;7.414;2023-02-25T13:27:29;4.60;;;1.40;;
2542;SDS011;1116;51.502;7.414;2023-02-25T13:30:20;5.00;;;1.50;;
2542;SDS011;1116;51.502;7.414;2023-02-25T13:33:04;6.23;;;1.37;;
2542;SDS011;1116;51.502;7.414;2023-02-25T13:35:55;3.20;;;1.10;;
2542;SDS011;1116;51.502;7.414;2023-02-25T13:38:37;5.00;;;1.50;;
2542;SDS011;1116;51.502;7.414;2023-02-25T13:41:33;2.77;;;1.10;;
2542;SDS011;1116;51.502;7.414;2023-02-25T13:44:17;2.40;;;0.87;;
2542;SDS011;1116;51.502;7.414;2023-02-25T13:50:20;3.43;;;1.40;;
2542;SDS011;1116;51.502;7.414;2023-02-25T13:53:11;3.80;;;1.20;;
2542;SDS011;1116;51.502;7.414;2023-02-25T13:56:00;2.43;;;0.80;;
2542;SDS011;1116;51.502;7.414;2023-02-25T13:58:48;3.13;;;1.10;;
2542;SDS011;1116;51.502;7.414;2023-02-25T14:01:35;4.20;;;1.20;;
2542;SDS011;1116;51.502;7.414;2023-02-25T14:04:30;2.60;;;1.00;;
2542;SDS011;1116;51.502;7.414;2023-02-25T14:07:30;1.73;;;1.10;;
2542;SDS011;1116;51.502;7.414;2023-02-25T14:10:17;1.07;;;0.67;;
2542;SDS011;1116;51.502;7.414;2023-02-25T14:19:08;2.03;;;1.10;;
2542;SDS011;1116;51.502;7.414;2023-02-25T14:22:06;1.57;;;1.13;;
2542;SDS011;1116;51.502;7.414;2023-02-25T14:24:54;3.83;;;1.40;;
2542;SDS011;1116;51.502;7.414;2023-02-25T14:27:36;2.73;;;1.10;;
2542;SDS011;1116;51.502;7.414;2023-02-25T14:30:17;1.13;;;0.70;;
2542;SDS011;1116;51.502;7.414;2023-02-25T14:32:57;4.07;;;1.07;;
2542;SDS011;1116;51.502;7.414;2023-02-25T14:35:54;3.10;;;1.10;;
2542;SDS011;1116;51.502;7.414;2023-02-25T14:38:40;1.50;;;0.90;;
2542;SDS011;1116;51.502;7.414;2023-02-25T14:41:32;2.27;;;1.00;;
2542;SDS011;1116;51.502;7.414;2023-02-25T14:44:12;2.63;;;0.70;;
2542;SDS011;1116;51.502;7.414;2023-02-25T14:46:50;3.73;;;0.87;;
2542;SDS011;1116;51.502;7.414;2023-02-25T14:49:26;1.37;;;0.90;;
2542;SDS011;1116;51.502;7.414;2023-02-25T14:55:45;3.10;;;0.77;;
2542;SDS011;1116;51.502;7.414;2023-02-25T14:58:43;3.63;;;0.90;;
2542;SDS011;1116;51.502;7.414;2023-02-25T15:08:15;2.70;;;1.00;;
2542;SDS011;1116;51.502;7.414;2023-02-25T15:11:00;3.90;;;1.10;;
2542;SDS011;1116;51.502;7.414;2023-02-25T15:13:50;3.90;;;0.90;;
2542;SDS011;1116;51.502;7.414;2023-02-25T15:16:49;6.13;;;1.97;;
2542;SDS011;1116;51.502;7.414;2023-02-25T15:19:59;1.43;;;0.80;;
2542;SDS011;1116;51.502;7.414;2023-02-25T15:23:02;2.47;;;1.00;;
2542;SDS011;1116;51.502;7.414;2023-02-25T15:25:46;7.77;;;1.40;;
2542;SDS011;1116;51.502;7.414;2023-02-25T15:31:10;3.20;;;1.20;;
2542;SDS011;1116;51.502;7.414;2023-02-25T15:39:56;2.80;;;0.90;;
2542;SDS011;1116;51.502;7.414;2023-02-25T15:54:43;2.73;;;0.93;;
2542;SDS011;1116;51.502;7.414;2023-02-25T16:03:25;2.13;;;0.90;;
2542;SDS011;1116;51.502;7.414;2023-02-25T16:06:21;1.93;;;1.20;;
2542;SDS011;1116;51.502;7.414;2023-02-25T16:08:55;5.73;;;1.23;;
2542;SDS011;1116;51.502;7.414;2023-02-25T16:11:35;4.10;;;1.20;;
2542;SDS011;1116;51.502;7.414;2023-02-25T16:14:13;2.80;;;1.10;;
2542;SDS011;1116;51.502;7.414;2023-02-25T16:16:50;1.00;;;0.90;;
2542;SDS011;1116;51.502;7.414;2023-02-25T16:22:06;5.37;;;1.37;;
2542;SDS011;1116;51.502;7.414;2023-02-25T16:24:44;4.53;;;1.20;;
2542;SDS011;1116;51.502;7.414;2023-02-25T16:27:23;2.07;;;1.13;;
2542;SDS011;1116;51.502;7.414;2023-02-25T16:30:05;4.57;;;1.20;;
2542;SDS011;1116;51.502;7.414;2023-02-25T16:32:51;5.67;;;1.40;;
2542;SDS011;1116;51.502;7.414;2023-02-25T16:35:30;2.67;;;1.30;;
2542;SDS011;1116;51.502;7.414;2023-02-25T16:38:14;2.60;;;1.47;;
2542;SDS011;1116;51.502;7.414;2023-02-25T16:40:54;2.70;;;1.03;;
2542;SDS011;1116;51.502;7.414;2023-02-25T16:43:34;1.57;;;1.10;;
2542;SDS011;1116;51.502;7.414;2023-02-25T16:46:10;2.87;;;1.00;;
2542;SDS011;1116;51.502;7.414;2023-02-25T16:48:47;4.07;;;1.20;;
2542;SDS011;1116;51.502;7.414;2023-02-25T16:51:21;2.33;;;1.20;;
2542;SDS011;1116;51.502;7.414;2023-02-25T16:53:54;2.07;;;1.47;;
2542;SDS011;1116;51.502;7.414;2023-02-25T16:56:27;2.47;;;1.40;;
2542;SDS011;1116;51.502;7.414;2023-02-25T16:59:03;3.20;;;1.03;;
2542;SDS011;1116;51.502;7.414;2023-02-25T17:01:37;2.20;;;1.20;;
2542;SDS011;1116;51.502;7.414;2023-02-25T17:04:13;5.43;;;1.80;;
2542;SDS011;1116;51.502;7.414;2023-02-25T17:09:41;4.93;;;1.23;;
2542;SDS011;1116;51.502;7.414;2023-02-25T17:12:21;2.17;;;1.40;;
2542;SDS011;1116;51.502;7.414;2023-02-25T17:15:04;10.00;;;1.40;;
2542;SDS011;1116;51.502;7.414;2023-02-25T17:17:46;2.40;;;1.03;;
2542;SDS011;1116;51.502;7.414;2023-02-25T17:20:21;2.53;;;1.10;;
2542;SDS011;1116;51.502;7.414;2023-02-25T17:22:55;6.13;;;1.67;;
2542;SDS011;1116;51.502;7.414;2023-02-25T17:25:28;3.53;;;1.47;;
2542;SDS011;1116;51.502;7.414;2023-02-25T17:28:05;4.40;;;2.30;;
2542;SDS011;1116;51.502;7.414;2023-02-25T17:30:38;2.23;;;1.30;;
2542;SDS011;1116;51.502;7.414;2023-02-25T17:33:23;5.50;;;1.53;;
2542;SDS011;1116;51.502;7.414;2023-02-25T17:35:58;3.80;;;1.90;;